createdAt,value
2022-10-22T00:00:12.062Z,1.33
2022-10-22T00:02:39.264Z,2.03
2022-10-22T00:05:06.567Z,2.30
2022-10-22T00:07:33.719Z,2.25
2022-10-22T00:10:00.941Z,2.50
2022-10-22T00:12:28.153Z,1.85
2022-10-22T00:14:55.371Z,1.63
2022-10-22T00:17:22.537Z,2.00
2022-10-22T00:19:49.760Z,2.10
2022-10-22T00:22:16.904Z,2.17
2022-10-22T00:24:44.106Z,1.52
2022-10-22T00:27:11.328Z,2.90
2022-10-22T00:29:38.532Z,2.08
2022-10-22T00:32:05.685Z,1.90
2022-10-22T00:34:32.891Z,1.40
2022-10-22T00:37:00.061Z,2.17
2022-10-22T00:39:27.241Z,1.48
2022-10-22T00:41:54.463Z,1.35
2022-10-22T00:44:22.230Z,1.83
2022-10-22T00:46:49.394Z,1.80
2022-10-22T00:49:16.629Z,1.73
2022-10-22T00:51:43.819Z,3.10
2022-10-22T00:54:11.029Z,1.75
2022-10-22T00:56:38.179Z,1.50
2022-10-22T00:59:05.432Z,2.40
2022-10-22T01:01:32.718Z,2.65
2022-10-22T01:03:59.938Z,2.80
2022-10-22T01:06:27.219Z,2.53
2022-10-22T01:08:54.493Z,2.20
2022-10-22T01:11:22.266Z,2.30
2022-10-22T01:13:49.511Z,2.33
2022-10-22T01:16:16.704Z,2.85
2022-10-22T01:18:43.907Z,2.20
2022-10-22T01:21:11.075Z,2.03
2022-10-22T01:23:38.300Z,1.98
2022-10-22T01:26:05.753Z,2.92
2022-10-22T01:28:32.973Z,2.45
2022-10-22T01:31:00.168Z,2.33
2022-10-22T01:33:27.345Z,2.50
2022-10-22T01:35:54.613Z,1.83
2022-10-22T01:38:21.849Z,3.53
2022-10-22T01:40:49.073Z,1.98
2022-10-22T01:43:16.753Z,2.10
2022-10-22T01:45:44.047Z,1.88
2022-10-22T01:48:11.219Z,2.60
2022-10-22T01:50:38.624Z,2.42
2022-10-22T01:53:05.790Z,2.22
2022-10-22T01:55:33.006Z,2.15
2022-10-22T01:58:00.138Z,2.40
2022-10-22T02:00:27.392Z,2.45
2022-10-22T02:02:54.584Z,1.90
2022-10-22T02:05:22.058Z,2.28
2022-10-22T02:07:49.233Z,2.53
2022-10-22T02:10:16.453Z,1.88
2022-10-22T02:12:43.890Z,1.65
2022-10-22T02:15:11.223Z,2.35
2022-10-22T02:17:38.385Z,1.75
2022-10-22T02:20:05.945Z,1.60
2022-10-22T02:22:33.183Z,3.28
2022-10-22T02:25:00.421Z,2.47
2022-10-22T02:27:27.623Z,3.55
2022-10-22T02:29:54.915Z,2.35
2022-10-22T02:32:22.069Z,3.40
2022-10-22T02:34:49.261Z,2.22
2022-10-22T02:37:16.426Z,1.80
2022-10-22T02:39:43.638Z,1.95
2022-10-22T02:42:12.178Z,1.48
2022-10-22T02:44:39.446Z,1.80
2022-10-22T02:47:06.600Z,2.03
2022-10-22T02:49:33.797Z,3.03
2022-10-22T02:52:00.966Z,1.55
2022-10-22T02:54:28.176Z,2.30
2022-10-22T02:56:55.341Z,1.70
2022-10-22T02:59:22.537Z,1.92
2022-10-22T03:01:49.683Z,1.30
2022-10-22T03:04:16.884Z,1.70
2022-10-22T03:06:44.757Z,1.92
2022-10-22T03:09:12.037Z,2.05
2022-10-22T03:11:39.230Z,1.73
2022-10-22T03:14:06.470Z,2.60
2022-10-22T03:16:33.610Z,1.90
2022-10-22T03:19:02.015Z,1.98
2022-10-22T03:21:29.271Z,1.50
2022-10-22T03:23:56.468Z,2.42
2022-10-22T03:26:23.626Z,1.40
2022-10-22T03:28:50.909Z,2.45
2022-10-22T03:31:18.082Z,1.38
2022-10-22T03:33:45.326Z,1.40
2022-10-22T03:36:12.536Z,1.40
2022-10-22T03:38:39.801Z,1.67
2022-10-22T03:41:06.960Z,1.70
2022-10-22T03:43:34.201Z,3.40
2022-10-22T03:46:01.345Z,1.35
2022-10-22T03:48:28.525Z,1.48
2022-10-22T03:50:55.699Z,1.83
2022-10-22T03:53:22.932Z,1.10
2022-10-22T03:55:50.123Z,1.65
2022-10-22T03:58:17.353Z,1.38
2022-10-22T04:00:44.541Z,1.77
2022-10-22T04:03:11.762Z,1.05
2022-10-22T04:05:38.933Z,1.27
2022-10-22T04:08:06.176Z,1.05
2022-10-22T04:10:33.313Z,1.20
2022-10-22T04:13:00.549Z,1.35
2022-10-22T04:15:29.079Z,1.45
2022-10-22T04:17:56.399Z,2.92
2022-10-22T04:20:23.593Z,3.17
2022-10-22T04:22:50.815Z,1.30
2022-10-22T04:25:18.041Z,1.67
2022-10-22T04:27:45.342Z,1.40
2022-10-22T04:30:12.761Z,1.58
2022-10-22T04:32:39.980Z,2.25
2022-10-22T04:35:07.211Z,1.55
2022-10-22T04:37:34.525Z,1.42
2022-10-22T04:40:01.679Z,1.50
2022-10-22T04:42:28.908Z,2.10
2022-10-22T04:44:56.065Z,2.20
2022-10-22T04:47:23.301Z,3.42
2022-10-22T04:49:50.486Z,2.13
2022-10-22T04:52:17.683Z,2.22
2022-10-22T04:54:44.854Z,3.80
2022-10-22T04:57:12.100Z,2.45
2022-10-22T04:59:39.246Z,2.03
2022-10-22T05:02:06.561Z,1.60
2022-10-22T05:04:33.774Z,1.98
2022-10-22T05:07:01.012Z,2.35
2022-10-22T05:09:28.230Z,2.15
2022-10-22T05:11:55.472Z,2.00
2022-10-22T05:14:22.708Z,1.67
2022-10-22T05:16:49.950Z,2.00
2022-10-22T05:19:17.399Z,2.70
2022-10-22T05:21:44.644Z,1.88
2022-10-22T05:24:11.866Z,1.70
2022-10-22T05:26:39.129Z,2.30
2022-10-22T05:29:06.287Z,2.75
2022-10-22T05:31:33.529Z,2.97
2022-10-22T05:34:00.770Z,2.13
2022-10-22T05:36:27.932Z,2.60
2022-10-22T05:38:55.205Z,1.83
2022-10-22T05:41:22.444Z,2.42
2022-10-22T05:43:49.692Z,3.35
2022-10-22T05:46:21.397Z,2.08
2022-10-22T05:48:50.144Z,2.47
2022-10-22T05:51:17.325Z,2.50
2022-10-22T05:53:44.638Z,2.90
2022-10-22T05:56:11.787Z,2.83
2022-10-22T05:58:39.121Z,2.60
2022-10-22T06:01:06.363Z,3.53
2022-10-22T06:03:33.574Z,2.42
2022-10-22T06:06:00.787Z,2.55
2022-10-22T06:08:27.999Z,2.63
2022-10-22T06:10:55.202Z,2.60
2022-10-22T06:13:22.977Z,2.58
2022-10-22T06:15:50.145Z,2.17
2022-10-22T06:18:17.389Z,3.42
2022-10-22T06:20:45.501Z,2.63
2022-10-22T06:23:12.727Z,2.35
2022-10-22T06:25:39.888Z,2.97
2022-10-22T06:28:07.142Z,2.30
2022-10-22T06:30:34.357Z,3.13
2022-10-22T06:33:01.572Z,3.40
2022-10-22T06:35:28.793Z,3.30
2022-10-22T06:37:56.001Z,3.10
2022-10-22T06:40:24.387Z,2.70
2022-10-22T06:42:51.652Z,4.40
2022-10-22T06:45:18.808Z,3.05
2022-10-22T06:47:47.317Z,3.72
2022-10-22T06:50:14.504Z,3.08
2022-10-22T06:52:41.761Z,2.78
2022-10-22T06:55:08.924Z,3.05
2022-10-22T06:57:36.182Z,3.97
2022-10-22T07:00:03.500Z,4.25
2022-10-22T07:02:30.764Z,2.92
2022-10-22T07:04:58.092Z,3.33
2022-10-22T07:07:25.312Z,3.47
2022-10-22T07:09:52.744Z,4.47
2022-10-22T07:12:19.989Z,3.55
2022-10-22T07:14:47.305Z,4.32
2022-10-22T07:17:14.474Z,3.17
2022-10-22T07:19:41.778Z,3.85
2022-10-22T07:22:09.001Z,3.40
2022-10-22T07:24:36.231Z,2.88
2022-10-22T07:27:04.380Z,4.82
2022-10-22T07:29:33.294Z,3.75
2022-10-22T07:32:00.447Z,4.40
2022-10-22T07:34:27.674Z,4.43
2022-10-22T07:36:54.961Z,4.55
2022-10-22T07:39:22.296Z,3.67
2022-10-22T07:41:49.530Z,3.25
2022-10-22T07:44:16.718Z,4.20
2022-10-22T07:46:48.062Z,3.85
2022-10-22T07:49:16.324Z,3.05
2022-10-22T07:51:43.529Z,3.55
2022-10-22T07:54:10.775Z,2.85
2022-10-22T07:56:37.963Z,3.58
2022-10-22T07:59:05.279Z,4.15
2022-10-22T08:01:32.487Z,3.53
2022-10-22T08:03:59.728Z,4.45
2022-10-22T08:06:26.952Z,2.78
2022-10-22T08:08:54.234Z,3.42
2022-10-22T08:11:21.466Z,2.78
2022-10-22T08:13:48.692Z,4.70
2022-10-22T08:16:15.994Z,3.58
2022-10-22T08:18:43.389Z,3.63
2022-10-22T08:21:10.585Z,3.40
2022-10-22T08:23:37.809Z,3.40
2022-10-22T08:26:05.135Z,2.28
2022-10-22T08:28:36.934Z,4.85
2022-10-22T08:31:04.157Z,4.65
2022-10-22T08:33:31.365Z,3.20
2022-10-22T08:35:58.574Z,2.85
2022-10-22T08:38:25.752Z,3.30
2022-10-22T08:40:53.057Z,3.30
2022-10-22T08:43:20.229Z,3.33
2022-10-22T08:45:47.486Z,5.22
2022-10-22T08:48:14.667Z,3.50
2022-10-22T08:50:41.948Z,4.90
2022-10-22T08:53:09.119Z,4.05
2022-10-22T08:55:37.565Z,2.90
2022-10-22T08:58:04.897Z,3.17
2022-10-22T09:00:32.134Z,3.42
2022-10-22T09:02:59.317Z,4.38
2022-10-22T09:05:26.515Z,2.83
2022-10-22T09:07:53.680Z,2.85
2022-10-22T09:10:21.082Z,3.95
2022-10-22T09:12:48.248Z,2.97
2022-10-22T09:15:15.588Z,3.13
2022-10-22T09:17:43.833Z,3.60
2022-10-22T09:20:11.470Z,2.97
2022-10-22T09:22:38.910Z,3.03
2022-10-22T09:25:06.138Z,3.03
2022-10-22T09:27:33.276Z,4.38
2022-10-22T09:30:00.772Z,3.90
2022-10-22T09:32:27.970Z,3.42
2022-10-22T09:34:55.211Z,3.45
2022-10-22T09:37:22.769Z,3.45
2022-10-22T09:39:50.026Z,3.08
2022-10-22T09:42:17.235Z,3.58
2022-10-22T09:44:47.752Z,3.15
2022-10-22T09:47:15.730Z,3.70
2022-10-22T09:49:42.927Z,2.97
2022-10-22T09:52:12.756Z,3.35
2022-10-22T09:54:39.997Z,4.65
2022-10-22T09:57:07.204Z,3.10
2022-10-22T09:59:34.391Z,3.13
2022-10-22T10:02:13.446Z,3.95
2022-10-22T10:04:47.778Z,2.80
2022-10-22T10:07:14.988Z,2.40
2022-10-22T10:09:42.204Z,4.78
2022-10-22T10:12:09.397Z,4.68
2022-10-22T10:14:36.687Z,2.60
2022-10-22T10:17:03.926Z,3.33
2022-10-22T10:19:31.445Z,2.47
2022-10-22T10:21:58.674Z,3.00
2022-10-22T10:24:25.915Z,2.85
2022-10-22T10:26:53.170Z,2.45
2022-10-22T10:29:20.533Z,2.40
2022-10-22T10:31:47.729Z,3.35
2022-10-22T10:34:14.964Z,5.10
2022-10-22T10:36:42.316Z,5.53
2022-10-22T10:39:09.541Z,2.63
2022-10-22T10:41:36.717Z,3.78
2022-10-22T10:44:04.031Z,2.50
2022-10-22T10:46:33.510Z,2.85
2022-10-22T10:49:03.588Z,2.67
2022-10-22T10:51:30.850Z,2.80
2022-10-22T10:53:58.188Z,2.55
2022-10-22T10:56:25.390Z,3.30
2022-10-22T10:58:52.726Z,2.90
2022-10-22T11:01:20.006Z,2.75
2022-10-22T11:03:47.307Z,2.78
2022-10-22T11:06:15.277Z,2.88
2022-10-22T11:08:43.583Z,3.80
2022-10-22T11:11:10.876Z,3.85
2022-10-22T11:13:38.246Z,2.58
2022-10-22T11:16:05.407Z,4.05
2022-10-22T11:18:32.664Z,2.85
2022-10-22T11:20:59.883Z,3.15
2022-10-22T11:23:27.270Z,2.40
2022-10-22T11:25:54.512Z,2.60
2022-10-22T11:28:21.794Z,4.35
2022-10-22T11:30:49.161Z,2.88
2022-10-22T11:33:16.335Z,2.95
2022-10-22T11:35:43.677Z,4.28
2022-10-22T11:38:10.854Z,2.63
2022-10-22T11:40:38.160Z,2.80
2022-10-22T11:43:05.469Z,2.63
2022-10-22T11:45:32.753Z,2.50
2022-10-22T11:47:59.990Z,3.03
2022-10-22T11:50:27.282Z,2.35
2022-10-22T11:52:55.041Z,2.05
2022-10-22T11:55:22.307Z,2.33
2022-10-22T11:57:49.590Z,2.72
2022-10-22T12:00:16.774Z,2.08
2022-10-22T12:02:44.239Z,2.53
2022-10-22T12:05:11.654Z,2.10
2022-10-22T12:07:38.877Z,1.90
2022-10-22T12:10:06.154Z,2.42
2022-10-22T12:12:33.409Z,1.98
2022-10-22T12:15:00.812Z,1.92
2022-10-22T12:17:27.982Z,2.30
2022-10-22T12:19:57.471Z,2.53
2022-10-22T12:22:27.083Z,3.15
2022-10-22T12:24:54.600Z,1.90
2022-10-22T12:27:22.779Z,2.92
2022-10-22T12:29:50.531Z,2.40
2022-10-22T12:32:18.089Z,2.05
2022-10-22T12:34:45.385Z,2.63
2022-10-22T12:37:12.837Z,2.22
2022-10-22T12:39:40.027Z,2.53
2022-10-22T12:42:07.386Z,4.85
2022-10-22T12:44:34.664Z,2.00
2022-10-22T12:47:01.956Z,2.42
2022-10-22T12:49:29.181Z,1.77
2022-10-22T12:51:56.475Z,3.00
2022-10-22T12:54:23.784Z,2.20
2022-10-22T12:56:51.346Z,2.10
2022-10-22T12:59:18.571Z,2.83
2022-10-22T13:01:46.042Z,1.85
2022-10-22T13:04:13.209Z,1.67
2022-10-22T13:06:40.462Z,2.90
2022-10-22T13:09:07.887Z,1.75
2022-10-22T13:11:35.164Z,1.80
2022-10-22T13:14:02.343Z,2.08
2022-10-22T13:16:30.812Z,2.10
2022-10-22T13:18:58.038Z,2.20
2022-10-22T13:21:26.521Z,2.00
2022-10-22T13:23:53.768Z,2.45
2022-10-22T13:26:20.922Z,2.40
2022-10-22T13:28:48.226Z,2.15
2022-10-22T13:31:15.442Z,2.45
2022-10-22T13:33:42.792Z,2.25
2022-10-22T13:36:09.965Z,1.80
2022-10-22T13:38:37.250Z,2.13
2022-10-22T13:41:04.938Z,2.22
2022-10-22T13:43:32.231Z,1.77
2022-10-22T13:45:59.442Z,2.28
2022-10-22T13:48:26.731Z,2.08
2022-10-22T13:50:54.130Z,1.83
2022-10-22T13:53:21.392Z,2.13
2022-10-22T13:55:50.215Z,3.60
2022-10-22T14:00:44.892Z,2.03
2022-10-22T14:03:12.273Z,2.63
2022-10-22T14:05:39.576Z,2.13
2022-10-22T14:08:06.780Z,1.88
2022-10-22T14:10:34.039Z,2.78
2022-10-22T14:13:01.235Z,1.65
2022-10-22T14:15:28.460Z,1.77
2022-10-22T14:17:55.678Z,1.70
2022-10-22T14:20:23.026Z,1.85
2022-10-22T14:22:50.266Z,2.42
2022-10-22T14:25:17.582Z,2.00
2022-10-22T14:27:44.780Z,2.00
2022-10-22T14:30:12.145Z,1.50
2022-10-22T14:32:39.723Z,2.78
2022-10-22T14:35:07.152Z,2.20
2022-10-22T14:37:34.315Z,2.22
2022-10-22T14:40:02.636Z,2.08
2022-10-22T14:42:30.078Z,2.08
2022-10-22T14:44:57.289Z,1.52
2022-10-22T14:47:24.546Z,2.22
2022-10-22T14:49:51.814Z,2.25
2022-10-22T14:52:20.195Z,2.00
2022-10-22T14:54:48.945Z,1.52
2022-10-22T14:57:16.604Z,2.25
2022-10-22T14:59:43.962Z,1.70
2022-10-22T15:02:11.153Z,2.22
2022-10-22T15:04:38.429Z,1.95
2022-10-22T15:07:05.664Z,2.35
2022-10-22T15:09:32.986Z,1.92
2022-10-22T15:12:00.170Z,3.05
2022-10-22T15:14:27.602Z,1.73
2022-10-22T15:16:54.819Z,2.15
2022-10-22T15:19:22.062Z,1.80
2022-10-22T15:21:49.242Z,2.95
2022-10-22T15:24:16.514Z,3.33
2022-10-22T15:26:43.751Z,2.53
2022-10-22T15:29:11.072Z,2.20
2022-10-22T15:31:38.357Z,1.63
2022-10-22T15:34:05.573Z,2.00
2022-10-22T15:36:32.735Z,2.78
2022-10-22T15:39:00.056Z,2.25
2022-10-22T15:41:27.265Z,3.20
2022-10-22T15:43:54.557Z,1.92
2022-10-22T15:46:21.980Z,2.05
2022-10-22T15:48:49.233Z,2.40
2022-10-22T15:51:16.420Z,2.05
2022-10-22T15:53:43.739Z,2.85
2022-10-22T15:56:12.035Z,2.42
2022-10-22T15:58:39.281Z,2.40
2022-10-22T16:01:06.601Z,2.38
2022-10-22T16:03:33.822Z,1.63
2022-10-22T16:06:00.948Z,1.73
2022-10-22T16:08:28.219Z,2.13
2022-10-22T16:10:55.440Z,2.50
2022-10-22T16:13:24.206Z,2.80
2022-10-22T16:15:51.428Z,2.40
2022-10-22T16:18:18.664Z,2.20
2022-10-22T16:20:45.884Z,1.98
2022-10-22T16:23:13.942Z,1.83
2022-10-22T16:25:41.167Z,2.33
2022-10-22T16:28:08.428Z,2.53
2022-10-22T16:30:35.649Z,2.10
2022-10-22T16:33:03.514Z,2.25
2022-10-22T16:35:31.131Z,2.65
2022-10-22T16:37:58.425Z,2.45
2022-10-22T16:40:25.597Z,3.10
2022-10-22T16:42:52.865Z,3.00
2022-10-22T16:45:20.205Z,3.53
2022-10-22T16:47:49.037Z,2.95
2022-10-22T16:50:16.208Z,2.92
2022-10-22T16:52:43.565Z,2.65
2022-10-22T16:55:10.762Z,2.70
2022-10-22T16:57:37.990Z,3.80
2022-10-22T17:00:05.213Z,2.38
2022-10-22T17:02:32.471Z,3.47
2022-10-22T17:04:59.630Z,3.55
2022-10-22T17:07:26.866Z,2.38
2022-10-22T17:09:54.075Z,2.78
2022-10-22T17:12:21.388Z,2.40
2022-10-22T17:14:48.667Z,2.78
2022-10-22T17:17:15.903Z,2.47
2022-10-22T17:19:43.071Z,2.33
2022-10-22T17:22:13.664Z,3.90
2022-10-22T17:24:43.972Z,2.45
2022-10-22T17:27:11.238Z,3.13
2022-10-22T17:29:38.551Z,2.38
2022-10-22T17:32:05.737Z,3.10
2022-10-22T17:34:33.306Z,2.72
2022-10-22T17:37:00.466Z,2.45
2022-10-22T17:39:27.732Z,3.03
2022-10-22T17:41:54.881Z,2.58
2022-10-22T17:44:22.203Z,2.90
2022-10-22T17:46:49.764Z,3.33
2022-10-22T17:49:17.329Z,5.82
2022-10-22T17:51:44.519Z,4.45
2022-10-22T17:54:11.750Z,4.15
2022-10-22T17:56:40.391Z,4.13
2022-10-22T17:59:07.684Z,5.45
2022-10-22T18:01:35.073Z,5.72
2022-10-22T18:04:02.409Z,7.13
2022-10-22T18:06:29.611Z,7.15
2022-10-22T18:08:56.842Z,5.75
2022-10-22T18:11:24.046Z,5.75
2022-10-22T18:13:51.330Z,6.25
2022-10-22T18:16:18.527Z,5.30
2022-10-22T18:18:46.125Z,5.40
2022-10-22T18:21:13.304Z,5.40
2022-10-22T18:23:40.567Z,6.10
2022-10-22T18:26:07.799Z,6.68
2022-10-22T18:28:35.012Z,6.32
2022-10-22T18:31:02.202Z,5.57
2022-10-22T18:33:29.404Z,5.00
2022-10-22T18:35:56.947Z,5.13
2022-10-22T18:38:24.617Z,4.57
2022-10-22T18:40:51.864Z,6.35
2022-10-22T18:43:19.081Z,4.50
2022-10-22T18:45:46.273Z,4.63
2022-10-22T18:48:13.491Z,4.30
2022-10-22T18:50:40.680Z,5.57
2022-10-22T18:53:07.901Z,3.95
2022-10-22T18:55:35.145Z,4.53
2022-10-22T18:58:02.313Z,4.65
2022-10-22T19:00:29.553Z,6.22
2022-10-22T19:02:56.748Z,5.10
2022-10-22T19:05:23.969Z,3.40
2022-10-22T19:07:51.137Z,3.53
2022-10-22T19:10:18.449Z,3.35
2022-10-22T19:12:45.666Z,3.00
2022-10-22T19:15:12.970Z,4.07
2022-10-22T19:17:40.472Z,3.78
2022-10-22T19:20:07.927Z,3.40
2022-10-22T19:22:35.273Z,2.88
2022-10-22T19:25:02.564Z,3.50
2022-10-22T19:27:31.718Z,3.58
2022-10-22T19:29:58.940Z,3.53
2022-10-22T19:32:28.778Z,3.47
2022-10-22T19:34:58.192Z,4.03
2022-10-22T19:37:25.363Z,3.40
2022-10-22T19:39:52.578Z,3.78
2022-10-22T19:42:20.882Z,4.25
2022-10-22T19:44:48.091Z,3.03
2022-10-22T19:47:16.110Z,3.67
2022-10-22T19:49:43.382Z,4.15
2022-10-22T19:52:10.594Z,4.78
2022-10-22T19:54:40.920Z,7.70
2022-10-22T19:57:08.164Z,3.63
2022-10-22T19:59:35.435Z,3.28
2022-10-22T20:02:02.770Z,4.05
2022-10-22T20:04:30.104Z,3.70
2022-10-22T20:06:57.418Z,3.53
2022-10-22T20:09:24.647Z,3.33
2022-10-22T20:11:51.980Z,3.65
2022-10-22T20:14:19.207Z,4.00
2022-10-22T20:16:46.518Z,4.70
2022-10-22T20:19:16.043Z,4.05
2022-10-22T20:21:43.477Z,4.15
2022-10-22T20:24:10.774Z,4.40
2022-10-22T20:26:37.958Z,4.18
2022-10-22T20:29:05.124Z,4.28
2022-10-22T20:31:33.238Z,4.57
2022-10-22T20:34:01.155Z,5.93
2022-10-22T20:36:28.394Z,7.28
2022-10-22T20:38:55.662Z,4.85
2022-10-22T20:41:22.961Z,5.35
2022-10-22T20:43:50.140Z,3.63
2022-10-22T20:46:17.794Z,3.38
2022-10-22T20:48:45.019Z,3.70
2022-10-22T20:51:12.254Z,5.40
2022-10-22T20:53:39.537Z,3.28
2022-10-22T20:56:06.789Z,3.25
2022-10-22T20:58:33.952Z,4.07
2022-10-22T21:01:09.529Z,3.97
2022-10-22T21:03:36.866Z,3.90
2022-10-22T21:06:04.111Z,3.67
2022-10-22T21:08:31.449Z,4.07
2022-10-22T21:10:58.639Z,3.45
2022-10-22T21:13:25.936Z,3.90
2022-10-22T21:15:53.165Z,3.80
2022-10-22T21:18:20.454Z,3.60
2022-10-22T21:20:47.644Z,3.33
2022-10-22T21:23:14.957Z,3.65
2022-10-22T21:25:43.972Z,3.53
2022-10-22T21:28:11.331Z,5.30
2022-10-22T21:30:38.526Z,3.72
2022-10-22T21:33:05.785Z,3.97
2022-10-22T21:35:33.434Z,4.38
2022-10-22T21:38:00.654Z,4.95
2022-10-22T21:40:28.077Z,4.65
2022-10-22T21:42:55.240Z,5.15
2022-10-22T21:45:22.677Z,3.60
2022-10-22T21:47:49.923Z,4.32
2022-10-22T21:50:17.119Z,3.92
2022-10-22T21:52:44.329Z,3.85
2022-10-22T21:55:11.501Z,4.82
2022-10-22T21:57:38.834Z,4.80
2022-10-22T22:00:06.134Z,4.10
2022-10-22T22:02:33.458Z,3.45
2022-10-22T22:05:00.627Z,3.17
2022-10-22T22:07:27.940Z,3.35
2022-10-22T22:09:55.182Z,3.45
2022-10-22T22:12:22.385Z,4.65
2022-10-22T22:14:49.637Z,3.47
2022-10-22T22:17:18.566Z,3.83
2022-10-22T22:19:45.815Z,4.07
2022-10-22T22:22:13.140Z,4.20
2022-10-22T22:24:40.381Z,4.13
2022-10-22T22:27:07.709Z,3.03
2022-10-22T22:29:35.001Z,3.90
2022-10-22T22:32:02.301Z,6.10
2022-10-22T22:34:29.530Z,3.50
2022-10-22T22:36:56.825Z,3.67
2022-10-22T22:39:24.069Z,4.47
2022-10-22T22:41:51.332Z,3.63
2022-10-22T22:44:18.595Z,3.75
2022-10-22T22:46:45.815Z,3.92
2022-10-22T22:49:13.037Z,3.92
2022-10-22T22:51:40.359Z,3.47
2022-10-22T22:54:07.609Z,3.65
2022-10-22T22:56:34.851Z,2.92
2022-10-22T22:59:02.117Z,3.00
2022-10-22T23:01:29.440Z,4.43
2022-10-22T23:03:56.741Z,4.28
2022-10-22T23:06:24.069Z,3.83
2022-10-22T23:08:52.087Z,3.20
2022-10-22T23:11:19.598Z,3.00
2022-10-22T23:13:46.859Z,3.10
2022-10-22T23:16:14.306Z,3.28
2022-10-22T23:18:41.520Z,3.63
2022-10-22T23:21:08.769Z,3.08
2022-10-22T23:23:35.978Z,3.30
2022-10-22T23:26:03.222Z,3.20
2022-10-22T23:28:30.486Z,3.15
2022-10-22T23:30:57.712Z,2.80
2022-10-22T23:33:24.957Z,2.85
2022-10-22T23:35:52.323Z,2.88
2022-10-22T23:38:19.508Z,2.90
2022-10-22T23:40:46.966Z,3.08
2022-10-22T23:43:14.128Z,3.08
2022-10-22T23:45:41.402Z,2.88
2022-10-22T23:48:08.657Z,2.72
2022-10-22T23:50:35.918Z,2.60
2022-10-22T23:53:03.082Z,3.03
2022-10-22T23:55:30.305Z,4.63
2022-10-22T23:57:57.587Z,2.90
